createdAt,value
2017-09-30T00:00:58.286Z,15.20
2017-09-30T00:03:53.239Z,15.19
2017-09-30T00:06:48.167Z,15.17
2017-09-30T00:09:43.118Z,15.14
2017-09-30T00:12:38.026Z,15.11
2017-09-30T00:15:33.036Z,15.09
2017-09-30T00:18:28.026Z,15.07
2017-09-30T00:21:22.982Z,15.04
2017-09-30T00:24:18.149Z,15.01
2017-09-30T00:27:13.114Z,14.97
2017-09-30T00:30:08.097Z,14.93
2017-09-30T00:33:03.144Z,14.92
2017-09-30T00:35:58.170Z,14.91
2017-09-30T00:38:53.017Z,14.90
2017-09-30T00:41:48.206Z,14.88
2017-09-30T00:44:43.218Z,14.86
2017-09-30T00:48:00.776Z,14.85
2017-09-30T00:50:48.824Z,14.84
2017-09-30T00:53:43.784Z,14.83
2017-09-30T00:56:38.691Z,14.81
2017-09-30T00:59:33.574Z,14.80
2017-09-30T01:02:28.528Z,14.78
2017-09-30T01:05:23.524Z,14.76
2017-09-30T01:08:18.480Z,14.73
2017-09-30T01:11:13.348Z,14.70
2017-09-30T01:14:08.239Z,14.67
2017-09-30T01:17:03.173Z,14.64
2017-09-30T01:20:43.359Z,14.61
2017-09-30T01:23:29.646Z,14.63
2017-09-30T01:26:24.481Z,14.63
2017-09-30T01:29:19.427Z,14.60
2017-09-30T01:32:14.358Z,14.57
2017-09-30T01:35:09.377Z,14.53
2017-09-30T01:38:04.226Z,14.49
2017-09-30T01:40:59.179Z,14.45
2017-09-30T01:43:54.202Z,14.41
2017-09-30T01:47:34.379Z,14.38
2017-09-30T01:56:56.157Z,14.72
2017-09-30T01:59:51.263Z,14.88
2017-09-30T02:03:48.579Z,14.91
2017-09-30T02:06:33.766Z,14.90
2017-09-30T02:09:28.268Z,14.82
2017-09-30T02:12:22.986Z,14.70
2017-09-30T02:15:17.853Z,14.58
2017-09-30T02:21:07.508Z,14.38
2017-09-30T02:27:13.169Z,14.26
2017-09-30T02:30:07.944Z,14.20
2017-09-30T02:40:23.548Z,14.42
2017-09-30T02:43:41.200Z,14.57
2017-09-30T02:46:27.496Z,14.58
2017-09-30T02:49:33.178Z,14.53
2017-09-30T02:52:45.603Z,14.45
2017-09-30T02:55:33.473Z,14.38
2017-09-30T02:58:50.816Z,14.29
2017-09-30T03:05:47.387Z,14.26
2017-09-30T03:08:31.436Z,14.35
2017-09-30T03:11:25.584Z,14.33
2017-09-30T03:14:31.467Z,14.24
2017-09-30T03:24:42.079Z,14.36
2017-09-30T03:27:48.466Z,14.47
2017-09-30T03:32:06.206Z,14.44
2017-09-30T03:37:17.885Z,14.40
2017-09-30T03:42:29.073Z,14.41
2017-09-30T03:56:02.189Z,14.51
2017-09-30T03:58:45.824Z,14.57
2017-09-30T04:02:13.711Z,14.50
2017-09-30T04:05:00.470Z,14.40
2017-09-30T04:07:55.032Z,14.27
2017-09-30T04:25:25.289Z,14.53
2017-09-30T04:28:19.172Z,14.46
2017-09-30T04:32:10.301Z,14.28
2017-09-30T04:46:19.586Z,14.32
2017-09-30T04:49:08.710Z,14.26
2017-09-30T05:06:21.917Z,14.43
2017-09-30T05:09:05.510Z,14.47
2017-09-30T05:11:59.380Z,14.37
2017-09-30T05:32:47.412Z,14.56
2017-09-30T05:38:20.550Z,14.55
2017-09-30T05:41:38.464Z,14.53
2017-09-30T05:59:06.352Z,14.72
2017-09-30T06:18:58.407Z,15.19
2017-09-30T06:42:36.370Z,15.78
2017-09-30T06:45:20.141Z,15.83
2017-09-30T06:49:55.750Z,15.67
2017-09-30T06:53:14.394Z,15.59
2017-09-30T06:57:42.739Z,15.45
2017-09-30T07:00:27.506Z,15.41
2017-09-30T07:15:02.524Z,15.65
2017-09-30T07:17:46.223Z,15.73
2017-09-30T07:20:51.481Z,15.69
2017-09-30T07:23:41.340Z,15.58
2017-09-30T07:26:36.034Z,15.48
2017-09-30T07:30:04.740Z,15.35
2017-09-30T07:38:30.889Z,15.43
2017-09-30T07:41:37.336Z,15.59
2017-09-30T07:45:32.597Z,15.65
2017-09-30T07:54:42.256Z,15.99
2017-09-30T07:57:26.238Z,16.17
2017-09-30T08:00:20.386Z,16.23
2017-09-30T08:03:15.014Z,16.23
2017-09-30T08:06:09.817Z,16.23
2017-09-30T08:09:04.906Z,16.20
2017-09-30T08:11:59.873Z,16.19
2017-09-30T08:14:54.890Z,16.19
2017-09-30T08:17:49.955Z,16.23
2017-09-30T08:20:45.100Z,16.25
2017-09-30T08:23:40.185Z,16.30
2017-09-30T08:26:35.303Z,16.34
2017-09-30T08:29:30.542Z,16.38
2017-09-30T08:32:25.650Z,16.41
2017-09-30T08:35:20.797Z,16.47
2017-09-30T08:38:15.940Z,16.54
2017-09-30T08:41:11.099Z,16.61
2017-09-30T08:44:06.314Z,16.69
2017-09-30T08:47:01.494Z,16.79
2017-09-30T08:49:56.725Z,16.88
2017-09-30T08:52:51.953Z,16.99
2017-09-30T08:55:47.087Z,17.12
2017-09-30T08:58:42.316Z,17.26
2017-09-30T09:01:37.550Z,17.38
2017-09-30T09:04:33.012Z,17.56
2017-09-30T09:07:28.607Z,17.80
2017-09-30T09:10:24.316Z,18.10
2017-09-30T09:13:20.039Z,18.45
2017-09-30T09:16:15.716Z,18.80
2017-09-30T09:19:11.341Z,19.12
2017-09-30T09:22:07.013Z,19.42
2017-09-30T09:25:02.954Z,19.72
2017-09-30T09:27:58.574Z,20.02
2017-09-30T09:30:54.337Z,20.29
2017-09-30T09:33:50.045Z,20.52
2017-09-30T09:36:45.638Z,20.71
2017-09-30T09:39:41.233Z,20.84
2017-09-30T09:42:36.735Z,20.96
2017-09-30T09:45:32.106Z,21.04
2017-09-30T09:48:27.526Z,21.09
2017-09-30T09:51:22.832Z,21.15
2017-09-30T09:54:18.240Z,21.21
2017-09-30T09:57:13.622Z,21.26
2017-09-30T10:00:09.014Z,21.30
2017-09-30T10:03:04.464Z,21.38
2017-09-30T10:05:59.861Z,21.44
2017-09-30T10:08:55.326Z,21.45
2017-09-30T10:11:50.628Z,21.46
2017-09-30T10:14:46.052Z,21.48
2017-09-30T10:17:41.558Z,21.54
2017-09-30T10:20:36.960Z,21.57
2017-09-30T10:23:32.494Z,21.58
2017-09-30T10:26:27.983Z,21.60
2017-09-30T10:29:23.451Z,21.64
2017-09-30T10:32:18.924Z,21.66
2017-09-30T10:35:14.248Z,21.67
2017-09-30T10:38:09.645Z,21.65
2017-09-30T10:41:05.154Z,21.63
2017-09-30T10:44:00.572Z,21.57
2017-09-30T10:46:56.337Z,21.50
2017-09-30T10:49:51.724Z,21.45
2017-09-30T10:52:47.168Z,21.41
2017-09-30T10:55:42.427Z,21.34
2017-09-30T10:58:37.697Z,21.28
2017-09-30T11:01:33.002Z,21.20
2017-09-30T11:04:28.421Z,21.13
2017-09-30T11:07:23.739Z,21.02
2017-09-30T11:10:19.097Z,20.96
2017-09-30T11:13:14.441Z,20.91
2017-09-30T11:16:09.777Z,20.85
2017-09-30T11:19:05.052Z,20.79
2017-09-30T11:22:00.369Z,20.71
2017-09-30T11:24:55.876Z,20.64
2017-09-30T11:27:51.413Z,20.57
2017-09-30T11:30:46.965Z,20.53
2017-09-30T11:33:42.133Z,20.48
2017-09-30T11:36:37.496Z,20.46
2017-09-30T11:39:32.856Z,20.42
2017-09-30T11:45:23.466Z,20.34
2017-09-30T11:48:18.721Z,20.32
2017-09-30T11:51:13.997Z,20.28
2017-09-30T11:54:09.359Z,20.24
2017-09-30T11:57:04.610Z,20.22
2017-09-30T12:00:00.040Z,20.20
2017-09-30T12:02:55.420Z,20.17
2017-09-30T12:05:50.661Z,20.15
2017-09-30T12:08:45.986Z,20.16
2017-09-30T12:11:41.370Z,20.16
2017-09-30T12:14:36.750Z,20.15
2017-09-30T12:17:32.088Z,20.17
2017-09-30T12:20:27.344Z,20.17
2017-09-30T12:23:22.691Z,20.16
2017-09-30T12:26:17.980Z,20.17
2017-09-30T12:29:13.319Z,20.18
2017-09-30T12:32:08.620Z,20.17
2017-09-30T12:35:03.958Z,20.17
2017-09-30T12:37:59.298Z,20.18
2017-09-30T12:40:54.589Z,20.20
2017-09-30T12:43:49.865Z,20.21
2017-09-30T12:46:45.230Z,20.20
2017-09-30T12:49:40.566Z,20.20
2017-09-30T12:52:36.023Z,20.19
2017-09-30T12:58:26.726Z,20.19
2017-09-30T13:01:22.030Z,20.20
2017-09-30T13:04:17.240Z,20.19
2017-09-30T13:07:12.596Z,20.22
2017-09-30T13:10:07.931Z,20.24
2017-09-30T13:13:03.272Z,20.26
2017-09-30T13:15:58.601Z,20.27
2017-09-30T13:18:53.979Z,20.28
2017-09-30T13:21:49.286Z,20.28
2017-09-30T13:24:44.575Z,20.28
2017-09-30T13:27:40.007Z,20.28
2017-09-30T13:30:35.229Z,20.27
2017-09-30T13:33:30.508Z,20.28
2017-09-30T13:36:25.788Z,20.27
2017-09-30T13:39:21.134Z,20.28
2017-09-30T13:42:16.608Z,20.27
2017-09-30T13:45:11.929Z,20.27
2017-09-30T13:48:07.203Z,20.28
2017-09-30T13:51:02.550Z,20.29
2017-09-30T13:53:57.978Z,20.30
2017-09-30T13:56:53.358Z,20.30
2017-09-30T13:59:48.703Z,20.30
2017-09-30T14:02:44.010Z,20.31
2017-09-30T14:05:39.386Z,20.30
2017-09-30T14:08:34.624Z,20.31
2017-09-30T14:11:29.925Z,20.31
2017-09-30T14:14:25.192Z,20.32
2017-09-30T14:17:20.660Z,20.30
2017-09-30T14:20:15.935Z,20.31
2017-09-30T14:23:11.237Z,20.31
2017-09-30T14:26:06.570Z,20.31
2017-09-30T14:31:57.151Z,20.32
2017-09-30T14:34:52.451Z,20.33
2017-09-30T14:37:47.766Z,20.32
2017-09-30T14:40:43.216Z,20.31
2017-09-30T14:43:38.586Z,20.29
2017-09-30T14:46:33.907Z,20.28
2017-09-30T14:49:29.147Z,20.26
2017-09-30T14:52:24.518Z,20.25
2017-09-30T14:55:19.850Z,20.24
2017-09-30T14:58:15.198Z,20.22
2017-09-30T15:01:10.473Z,20.20
2017-09-30T15:04:05.792Z,20.19
2017-09-30T15:07:01.108Z,20.18
2017-09-30T15:09:56.412Z,20.18
2017-09-30T15:12:51.804Z,20.16
2017-09-30T15:15:47.191Z,20.15
2017-09-30T15:18:42.416Z,20.14
2017-09-30T15:21:37.829Z,20.12
2017-09-30T15:24:33.112Z,20.10
2017-09-30T15:27:28.425Z,20.08
2017-09-30T15:30:23.898Z,20.06
2017-09-30T15:33:19.033Z,20.04
2017-09-30T15:36:14.358Z,20.03
2017-09-30T15:39:09.672Z,20.00
2017-09-30T15:42:04.980Z,19.99
2017-09-30T15:47:55.551Z,19.95
2017-09-30T15:50:50.787Z,19.92
2017-09-30T15:53:46.179Z,19.90
2017-09-30T15:56:41.535Z,19.88
2017-09-30T15:59:36.796Z,19.87
2017-09-30T16:02:32.071Z,19.84
2017-09-30T16:05:27.462Z,19.82
2017-09-30T16:08:22.654Z,19.79
2017-09-30T16:11:17.913Z,19.76
2017-09-30T16:14:13.204Z,19.73
2017-09-30T16:17:08.555Z,19.70
2017-09-30T16:20:03.828Z,19.68
2017-09-30T16:22:59.190Z,19.65
2017-09-30T16:25:54.283Z,19.62
2017-09-30T16:28:49.606Z,19.59
2017-09-30T16:31:44.837Z,19.56
2017-09-30T16:34:40.042Z,19.52
2017-09-30T16:37:35.306Z,19.48
2017-09-30T16:40:30.536Z,19.45
2017-09-30T16:43:25.661Z,19.41
2017-09-30T16:49:16.436Z,19.34
2017-09-30T16:52:11.646Z,19.31
2017-09-30T16:55:06.934Z,19.29
2017-09-30T16:58:02.114Z,19.27
2017-09-30T17:00:57.373Z,19.25
2017-09-30T17:03:52.644Z,19.21
2017-09-30T17:06:47.794Z,19.18
2017-09-30T17:09:43.107Z,19.16
2017-09-30T17:12:38.360Z,19.12
2017-09-30T17:15:33.632Z,19.09
2017-09-30T17:18:28.862Z,19.06
2017-09-30T17:21:24.138Z,19.03
2017-09-30T17:24:19.381Z,19.00
2017-09-30T17:27:14.668Z,18.96
2017-09-30T17:30:09.859Z,18.93
2017-09-30T17:33:05.131Z,18.89
2017-09-30T17:36:00.296Z,18.85
2017-09-30T17:38:55.532Z,18.81
2017-09-30T17:41:50.754Z,18.75
2017-09-30T17:44:46.013Z,18.71
2017-09-30T17:47:41.207Z,18.67
2017-09-30T17:50:36.382Z,18.63
2017-09-30T17:57:57.125Z,18.45
2017-09-30T18:00:47.111Z,18.42
2017-09-30T18:03:42.052Z,18.37
2017-09-30T18:06:36.977Z,18.32
2017-09-30T18:09:32.016Z,18.28
2017-09-30T18:12:26.945Z,18.23
2017-09-30T18:15:21.898Z,18.17
2017-09-30T18:18:16.833Z,18.12
2017-09-30T18:21:11.687Z,18.09
2017-09-30T18:24:06.710Z,18.04
2017-09-30T18:27:02.561Z,17.98
2017-09-30T18:29:56.493Z,17.93
2017-09-30T18:32:51.363Z,17.87
2017-09-30T18:35:46.197Z,17.81
2017-09-30T18:44:30.855Z,17.65
2017-09-30T18:47:25.658Z,17.60
2017-09-30T18:50:20.568Z,17.54
2017-09-30T18:56:10.217Z,17.45
2017-09-30T18:59:05.169Z,17.41
2017-09-30T19:02:00.035Z,17.37
2017-09-30T19:04:55.145Z,17.34
2017-09-30T19:07:50.058Z,17.32
2017-09-30T19:10:44.854Z,17.29
2017-09-30T19:13:39.746Z,17.25
2017-09-30T19:16:34.761Z,17.22
2017-09-30T19:25:19.215Z,17.12
2017-09-30T19:28:13.954Z,17.09
2017-09-30T19:31:09.881Z,17.06
2017-09-30T19:36:58.474Z,16.99
2017-09-30T19:39:53.231Z,16.96
2017-09-30T19:42:48.120Z,16.93
2017-09-30T19:45:42.987Z,16.89
2017-09-30T19:48:37.880Z,16.87
2017-09-30T19:54:27.579Z,16.82
2017-09-30T19:57:22.398Z,16.78
2017-09-30T20:00:17.224Z,16.75
2017-09-30T20:03:11.958Z,16.73
2017-09-30T20:06:06.765Z,16.71
2017-09-30T20:09:01.614Z,16.69
2017-09-30T20:11:56.386Z,16.68
2017-09-30T20:14:51.754Z,16.65
2017-09-30T20:17:46.611Z,16.62
2017-09-30T20:20:41.420Z,16.59
2017-09-30T20:23:36.332Z,16.55
2017-09-30T20:26:31.133Z,16.52
2017-09-30T20:29:25.937Z,16.49
2017-09-30T20:32:20.827Z,16.46
2017-09-30T20:35:15.708Z,16.44
2017-09-30T20:38:10.580Z,16.41
2017-09-30T20:41:05.390Z,16.38
2017-09-30T20:44:00.165Z,16.36
2017-09-30T20:46:55.027Z,16.34
2017-09-30T20:49:49.904Z,16.32
2017-09-30T20:52:44.762Z,16.30
2017-09-30T20:55:39.512Z,16.28
2017-09-30T20:58:34.333Z,16.25
2017-09-30T21:01:29.140Z,16.24
2017-09-30T21:04:23.864Z,16.22
2017-09-30T21:07:18.632Z,16.20
2017-09-30T21:10:13.521Z,16.18
2017-09-30T21:16:03.131Z,16.14
2017-09-30T21:18:58.062Z,16.13
2017-09-30T21:21:52.888Z,16.12
2017-09-30T21:24:47.755Z,16.11
2017-09-30T21:27:42.502Z,16.10
2017-09-30T21:33:32.210Z,16.09
2017-09-30T21:36:26.932Z,16.09
2017-09-30T21:42:16.575Z,16.08
2017-09-30T21:45:11.535Z,16.08
2017-09-30T21:48:06.446Z,16.07
2017-09-30T21:51:01.225Z,16.05
2017-09-30T21:56:50.872Z,16.03
2017-09-30T21:59:45.661Z,16.02
2017-09-30T22:02:40.412Z,16.00
2017-09-30T22:05:35.089Z,15.99
2017-09-30T22:08:29.938Z,15.98
2017-09-30T22:11:24.725Z,15.97
2017-09-30T22:17:14.300Z,15.95
2017-09-30T22:20:09.102Z,15.93
2017-09-30T22:25:58.816Z,15.92
2017-09-30T22:28:53.515Z,15.91
2017-09-30T22:31:48.367Z,15.90
2017-09-30T22:34:43.059Z,15.89
2017-09-30T22:37:37.888Z,15.88
2017-09-30T22:40:32.706Z,15.86
2017-09-30T22:46:22.254Z,15.82
2017-09-30T22:49:16.881Z,15.80
2017-09-30T22:52:11.671Z,15.78
2017-09-30T22:55:06.501Z,15.78
2017-09-30T22:58:01.183Z,15.76
2017-09-30T23:00:55.990Z,15.73
2017-09-30T23:03:50.835Z,15.70
2017-09-30T23:06:45.640Z,15.67
2017-09-30T23:09:40.420Z,15.66
2017-09-30T23:12:35.119Z,15.62
2017-09-30T23:15:29.838Z,15.58
2017-09-30T23:18:24.647Z,15.56
2017-09-30T23:24:14.266Z,15.49
2017-09-30T23:30:03.784Z,15.45
2017-09-30T23:32:58.612Z,15.45
2017-09-30T23:35:53.477Z,15.45
2017-09-30T23:38:48.365Z,15.46
2017-09-30T23:41:43.181Z,15.46
2017-09-30T23:47:32.760Z,15.45
2017-09-30T23:50:27.583Z,15.44
2017-09-30T23:53:22.423Z,15.44
2017-09-30T23:56:17.146Z,15.44
2017-09-30T23:59:11.966Z,15.44
